AirNav   Phillips 66 Aviation Fuel
 
 893 users online  

2RR River Ranch Resort Airport
River Ranch, Florida, USA

GOING TO RIVER RANCH?


FAA INFORMATION EFFECTIVE 26 APRIL 2018

Location

FAA Identifier: 2RR
Lat/Long: 27-46-45.6000N / 081-12-14.1000W
27-46.760000N / 081-12.235000W
27.7793333 / -81.2039167
(estimated)
Elevation: 55 ft. / 17 m (estimated)
Variation: 03W (1985)
Time zone: UTC -4 (UTC -5 during Standard Time)
Zip code: 33853

Airport Operations

Airport use: Open to the public
Control tower: no
ARTCC: MIAMI CENTER
FSS: SAINT PETERSBURG FLIGHT SERVICE STATION
NOTAMs facility: PIE (NOTAM-D service available)
Attendance: CONTINUOUS
Wind indicator: lighted
Segmented circle: no
Beacon: white-green (lighted land airport)
RDO-CTL

Airport Communications

CTAF/UNICOM: 122.8

Nearby radio navigation aids

VOR radial/distance  VOR name  Freq  Var
MLBr244/35.9MELBOURNE VOR/DME110.0007W
TRVr286/38.4TREASURE VORTAC117.3007W

 
NDB name  Hdg/Dist  Freq  Var  ID
SATELLITE240/32.925706WSQT ... --.- -

Airport Services

Fuel available: 100LL
Parking: tiedowns
Airframe service: NONE
Powerplant service: NONE

Runway Information

Runway 16/34

Dimensions: 4950 x 75 ft. / 1509 x 23 m
Surface: asphalt, in fair condition
Runway edge lights: non-standard
Runway edge markings: RY 16/34 THLD MARKINGS HAVE INCORRECT SPACING.
RUNWAY 16  RUNWAY 34
Latitude: 27-47.134500N27-46.386667N
Longitude: 081-12.420833W081-12.050500W
Traffic pattern: leftright
Displaced threshold: 200 ft.1000 ft.
Markings: basic, in poor conditionbasic, in poor condition
Obstructions: 35 ft. tree, 317 ft. from runway, 10 ft. left of centerline, 3:1 slope to clear
RY 16 APCH RATIO 15:1 TO DSPLCD THLD.
40 ft. tree, 320 ft. from runway, 88 ft. left of centerline, 3:1 slope to clear
RY 34 APCH RATIO 30:1 FROM DSPLCD THLD.

Airport Ownership and Management from official FAA records

Ownership: Privately-owned
Owner: WESTGATE RESORTS CENTRAL FL INVEST
PO BOX 30030
RIVER RANCH, FL 33867-0030
Phone 863-692-0727
Manager: BOB MOUNT
3600 RIVER RANCH BOULEVARD
RIVER RANCH, FL 33867-0030
Phone 863-692-1321

Additional Remarks

RWY 34 250' TOWER E 3000' SE OF RWY END E 2400' RT OF CL.
30 FT BRUSH & TREES 125 FT FROM CNTRLN BOTH SIDES OF RY.

Instrument Procedures

There are no published instrument procedures at 2RR.

Some nearby airports with instrument procedures:

KAVO - Avon Park Executive Airport (21 nm SW)
KSEF - Sebring Regional Airport (21 nm S)
X07 - Lake Wales Municipal Airport (23 nm W)
KBOW - Bartow Municipal Airport (32 nm W)
KISM - Kissimmee Gateway Airport (33 nm N)
 
Loc | Ops | Rwys | IFR | FBO | Links
Com | Nav | Svcs | Stats | Notes

Reliance Aviation
AirBoss

 
Area around 2RR (River Ranch Resort Airport)
 
Road maps at: MapQuest Bing Google
 
Aerial photo
WARNING: Photo may not be current or correct
Aerial photo of 2RR (River Ranch Resort Airport)
Photo by Michael Ruperti
Photo taken 01-Aug-2009
from a Cessna 172 M.

Do you have a better or more recent aerial photo of River Ranch Resort Airport that you would like to share? If so, please send us your photo.

 
Sectional chart

 
Airport distance calculator
Flying to River Ranch Resort Airport? Find the distance to fly.

From to 2RR

Sunrise and sunset
Times for 26-Apr-2018
 Local
(UTC-4)
 Zulu
(UTC)
Morning civil twilight06:2610:26
Sunrise06:5110:51
Sunset19:5523:55
Evening civil twilight20:1900:19

Current date and time
Zulu (UTC)  26-Apr-2018 12:26:33
Local (UTC-4)  26-Apr-2018 08:26:33
 
METAR
KSEF 
21nm S 
261215Z AUTO 00000KT 10SM BKN031 18/15 A2995 RMK AO2 T01820153
KBOW 
31nm W 
261130Z 00000KT 10SM SKC 13/13 A2994
KISM 
33nm N 
261156Z 22003KT 10SM CLR 16/15 A2994 RMK AO2 SLP139 T01610150 10161 20139 53007
KGIF 
34nm NW 
261153Z AUTO 21004KT 10SM CLR 17/16 A2994 RMK AO2 SLP138 T01720161 10178 20156 53007
KMLB 
35nm NE 
261153Z 24004KT 10SM CLR 17/16 A2993 RMK AO2 SLP133 T01720161 10172 20150 53007
KOBE 
36nm SE 
261215Z AUTO 00000KT 10SM CLR 16/15 A2994 RMK AO2
X26 
38nm E 
SuperAWOS
252255Z AUTO 29005KT 10SM 27/19 A2987
KMCO 
39nm N 
261153Z 21005KT 10SM SCT019 SCT250 17/16 A2993 RMK AO2 SLP133 T01670156 10167 20144 53007
TAF
KISM 
33nm N 
261128Z 2612/2712 23004KT P6SM SCT250 FM261500 25008KT P6SM SCT040 BKN250 FM270000 26005KT P6SM SKC
KMLB 
35nm NE 
261128Z 2612/2712 23006KT P6SM SCT250 FM261700 20009KT P6SM SCT040 BKN250 FM270000 25005KT P6SM SKC
KMCO 
39nm N 
261128Z 2612/2718 23004KT P6SM SCT250 FM261500 25008KT P6SM SCT040 BKN250 FM270000 25005KT P6SM SKC
NOTAMs
Click for the latest NOTAMs
NOTAMs are issued by the DoD/FAA and will open in a separate window not controlled by AirNav.

 

 
 

FBO, Fuel Providers, and Aircraft Ground Support

  
 Business Name 
 
 Contact 
 
 Services / Description 
 
Fuel Prices
 
Comments
  
Westgate River Ranch Aviation 863-692-2907
no information available

If you are affiliated with Westgate River Ranch Aviation and would like to show here your services, contact info, web link, logo, and more, click here
100LL
SS $4.99 
 Updated 17-Apr-2018
 
   write
SS=Self service
Update Fuel Prices
 

Would you like to see your business listed on this page?

 If your business provides an interesting product or service to pilots, flight crews, aircraft, or users of the River Ranch Resort Airport, you should consider listing it here.  To start the listing process, click on the button below
 
Add a business
 

Other Pages about River Ranch Resort Airport

www.westgatedestinations.com/...
 
Update a link
 
Copyright © AirNav, LLC. All rights reserved. Privacy Policy  Contact